Time;durP1;ratioP1;P1;durP2;ratioP2;P2;SDS_P1;SDS_P2;PMS_P1;PMS_P2;Temp;Humidity;BMP_temperature;BMP_pressure;BME280_temperature;BME280_humidity;BME280_pressure;Samples;Min_cycle;Max_cycle;Signal;HPM_P1;HPM_P2
2021/08/05 00:00:42;;;;;;;7.53;3.92;;;;;;;;;;1505480;39;20018;-63
2021/08/05 00:01:43;;;;;;;7.40;3.70;;;;;;;;;;1505418;39;20394;-63
2021/08/05 00:02:44;;;;;;;7.55;3.20;;;;;;;;;;1505593;39;20019;-63
2021/08/05 00:03:45;;;;;;;6.63;3.45;;;;;;;;;;1505396;39;20022;-63
2021/08/05 00:04:47;;;;;;;5.50;3.33;;;;;;;;;;1505647;39;20027;-62
2021/08/05 00:05:48;;;;;;;10.00;3.50;;;;;;;;;;1505421;39;20390;-62
2021/08/05 00:06:50;;;;;;;7.07;3.22;;;;;;;;;;1505522;39;20026;-63
2021/08/05 00:07:51;;;;;;;7.53;3.60;;;;;;;;;;1505550;39;20030;-63
2021/08/05 00:08:52;;;;;;;7.90;3.83;;;;;;;;;;1505515;39;20046;-63
2021/08/05 00:09:53;;;;;;;6.20;3.45;;;;;;;;;;1505369;39;20027;-61
2021/08/05 00:10:55;;;;;;;7.25;3.65;;;;;;;;;;1505525;39;20023;-63
2021/08/05 00:11:56;;;;;;;6.43;3.70;;;;;;;;;;1505448;39;20029;-63
2021/08/05 00:12:58;;;;;;;6.53;3.40;;;;;;;;;;1505398;39;20022;-63
2021/08/05 00:13:58;;;;;;;4.28;2.80;;;;;;;;;;1505376;39;20019;-62
2021/08/05 00:15:01;;;;;;;6.63;3.15;;;;;;;;;;1505493;39;20022;-63
2021/08/05 00:16:02;;;;;;;9.55;3.78;;;;;;;;;;1505395;39;20030;-63
2021/08/05 00:17:05;;;;;;;6.10;3.45;;;;;;;;;;1505481;39;20018;-61
2021/08/05 00:18:06;;;;;;;6.10;3.60;;;;;;;;;;1505497;39;20023;-63
2021/08/05 00:19:08;;;;;;;7.18;3.60;;;;;;;;;;1505365;39;20026;-63
2021/08/05 00:20:10;;;;;;;8.45;3.80;;;;;;;;;;1505509;39;20053;-62
2021/08/05 00:21:12;;;;;;;6.80;3.90;;;;;;;;;;1505495;39;20266;-63
2021/08/05 00:22:12;;;;;;;6.75;3.70;;;;;;;;;;1505299;39;20019;-63
2021/08/05 00:23:14;;;;;;;7.10;3.80;;;;;;;;;;1505446;39;20022;-62
2021/08/05 00:24:15;;;;;;;5.57;3.58;;;;;;;;;;1505389;39;20382;-62
2021/08/05 00:25:17;;;;;;;8.48;3.63;;;;;;;;;;1505426;39;20025;-63
2021/08/05 00:26:18;;;;;;;6.53;3.80;;;;;;;;;;1500621;39;20027;-61
2021/08/05 00:27:20;;;;;;;6.22;3.70;;;;;;;;;;1500710;39;20045;-62
2021/08/05 00:28:20;;;;;;;6.97;3.55;;;;;;;;;;1505424;39;20049;-63
2021/08/05 00:29:22;;;;;;;6.55;3.63;;;;;;;;;;1505410;39;20026;-62
2021/08/05 00:30:24;;;;;;;8.93;4.43;;;;;;;;;;1505813;39;20060;-62
2021/08/05 00:31:26;;;;;;;7.72;4.22;;;;;;;;;;1506060;39;20406;-63
2021/08/05 00:32:27;;;;;;;7.93;3.90;;;;;;;;;;1506016;39;20026;-61
2021/08/05 00:33:29;;;;;;;8.10;3.80;;;;;;;;;;1506207;39;20019;-62
2021/08/05 00:34:30;;;;;;;9.15;4.22;;;;;;;;;;1506004;39;20022;-62
2021/08/05 00:35:32;;;;;;;9.50;3.88;;;;;;;;;;1506232;39;20027;-63
2021/08/05 00:36:32;;;;;;;8.93;4.03;;;;;;;;;;1506074;39;20034;-62
2021/08/05 00:37:34;;;;;;;7.72;3.80;;;;;;;;;;1506074;39;20023;-62
2021/08/05 00:38:35;;;;;;;7.22;3.80;;;;;;;;;;1506042;39;20323;-62
2021/08/05 00:39:37;;;;;;;8.98;4.00;;;;;;;;;;1506086;39;20026;-62
2021/08/05 00:40:38;;;;;;;7.43;3.90;;;;;;;;;;1505998;39;20022;-62
2021/08/05 00:41:41;;;;;;;7.78;3.97;;;;;;;;;;1506064;39;20025;-61
2021/08/05 00:42:42;;;;;;;8.15;4.05;;;;;;;;;;1506022;39;20281;-62
2021/08/05 00:43:43;;;;;;;6.75;4.00;;;;;;;;;;1506162;39;20023;-62
2021/08/05 00:44:44;;;;;;;9.18;4.80;;;;;;;;;;1506124;39;20023;-61
2021/08/05 00:45:48;;;;;;;7.63;4.35;;;;;;;;;;1505980;39;20309;-62
2021/08/05 00:46:49;;;;;;;7.07;3.85;;;;;;;;;;1505994;39;20122;-63
2021/08/05 00:47:50;;;;;;;8.13;4.20;;;;;;;;;;1505987;39;20023;-62
2021/08/05 00:48:51;;;;;;;6.30;3.50;;;;;;;;;;1506001;39;20026;-62
2021/08/05 00:49:53;;;;;;;10.02;3.90;;;;;;;;;;1505952;39;20027;-62
2021/08/05 00:50:54;;;;;;;8.45;4.10;;;;;;;;;;1505939;39;20034;-62
2021/08/05 00:51:56;;;;;;;8.02;4.15;;;;;;;;;;1506121;39;20022;-62
2021/08/05 00:52:58;;;;;;;7.00;3.85;;;;;;;;;;1505914;39;20408;-62
2021/08/05 00:53:59;;;;;;;9.90;4.35;;;;;;;;;;1505913;39;20418;-62
2021/08/05 00:55:00;;;;;;;10.10;4.68;;;;;;;;;;1506027;39;20030;-62
2021/08/05 00:56:02;;;;;;;9.05;4.18;;;;;;;;;;1506200;39;20030;-62
2021/08/05 00:57:03;;;;;;;8.77;4.28;;;;;;;;;;1505909;39;20034;-62
2021/08/05 00:58:05;;;;;;;9.00;4.20;;;;;;;;;;1506012;39;20031;-61
2021/08/05 00:59:06;;;;;;;7.78;4.20;;;;;;;;;;1505924;39;20045;-62
2021/08/05 01:00:10;;;;;;;8.10;4.20;;;;;;;;;;1505847;39;20030;-61
2021/08/05 01:01:17;;;;;;;7.75;4.40;;;;;;;;;;1505973;39;20027;-62
2021/08/05 01:02:20;;;;;;;8.35;4.20;;;;;;;;;;1506046;39;20386;-62
2021/08/05 01:03:25;;;;;;;7.95;4.32;;;;;;;;;;1506014;39;20022;-62
2021/08/05 01:04:27;;;;;;;7.95;4.30;;;;;;;;;;1506085;39;20027;-62
2021/08/05 01:05:33;;;;;;;7.63;4.50;;;;;;;;;;1505930;39;20027;-62
2021/08/05 01:06:47;;;;;;;8.38;4.00;;;;;;;;;;1505960;39;20026;-62
2021/08/05 01:07:53;;;;;;;7.78;4.32;;;;;;;;;;1505994;39;20018;-62
2021/08/05 01:08:58;;;;;;;7.00;3.95;;;;;;;;;;1505943;39;20070;-62
2021/08/05 01:10:03;;;;;;;9.40;4.03;;;;;;;;;;1506085;39;20381;-61
2021/08/05 01:11:13;;;;;;;9.43;4.32;;;;;;;;;;1505971;39;20035;-62
2021/08/05 01:12:21;;;;;;;7.50;3.90;;;;;;;;;;1505973;39;20030;-61
2021/08/05 01:13:28;;;;;;;7.00;3.38;;;;;;;;;;1505991;39;20025;-62
2021/08/05 01:14:35;;;;;;;8.90;3.50;;;;;;;;;;1501248;39;20027;-62
2021/08/05 01:15:37;;;;;;;6.82;3.60;;;;;;;;;;1501894;39;20027;-62
2021/08/05 01:16:42;;;;;;;8.02;3.40;;;;;;;;;;1505986;39;20027;-61
2021/08/05 01:17:48;;;;;;;6.10;3.03;;;;;;;;;;1505914;39;20408;-62
2021/08/05 01:18:50;;;;;;;7.22;3.33;;;;;;;;;;1505947;39;20022;-62
2021/08/05 01:19:56;;;;;;;5.10;2.70;;;;;;;;;;1505863;39;20026;-62
2021/08/05 01:21:03;;;;;;;6.43;3.30;;;;;;;;;;1505957;39;20102;-62
2021/08/05 01:22:11;;;;;;;4.78;3.00;;;;;;;;;;1506097;39;20314;-62
2021/08/05 01:23:21;;;;;;;6.85;3.47;;;;;;;;;;1506041;39;20023;-62
2021/08/05 01:24:25;;;;;;;6.53;3.10;;;;;;;;;;1505952;39;20026;-61
2021/08/05 01:25:31;;;;;;;7.22;3.30;;;;;;;;;;1505879;39;20313;-62
2021/08/05 01:26:55;;;;;;;8.20;3.83;;;;;;;;;;1506061;39;20371;-62
2021/08/05 01:27:58;;;;;;;6.93;3.33;;;;;;;;;;1506170;39;20030;-62
2021/08/05 01:29:01;;;;;;;9.48;3.53;;;;;;;;;;1505994;39;20029;-62
2021/08/05 01:30:03;;;;;;;8.73;3.33;;;;;;;;;;1505794;39;20026;-61
2021/08/05 01:31:06;;;;;;;7.22;3.63;;;;;;;;;;1505872;39;20035;-61
2021/08/05 01:32:09;;;;;;;5.97;3.40;;;;;;;;;;1505872;39;20274;-62
2021/08/05 01:33:12;;;;;;;8.93;3.15;;;;;;;;;;1501202;39;20047;-61
2021/08/05 01:34:14;;;;;;;7.45;3.45;;;;;;;;;;1501241;39;20023;-62
2021/08/05 01:35:16;;;;;;;7.35;3.83;;;;;;;;;;1506150;39;20015;-62
2021/08/05 01:36:19;;;;;;;7.63;3.13;;;;;;;;;;1505913;39;20027;-62
2021/08/05 01:37:21;;;;;;;8.73;4.38;;;;;;;;;;1506040;39;20026;-61
2021/08/05 01:38:23;;;;;;;6.60;3.38;;;;;;;;;;1505860;39;20019;-61
2021/08/05 01:39:24;;;;;;;8.27;3.22;;;;;;;;;;1505951;39;20026;-62
2021/08/05 01:40:26;;;;;;;8.77;3.53;;;;;;;;;;1505696;39;20309;-61
2021/08/05 01:41:29;;;;;;;7.88;3.50;;;;;;;;;;1505789;39;20034;-61
2021/08/05 01:42:32;;;;;;;7.38;3.90;;;;;;;;;;1505907;39;20019;-61
2021/08/05 01:43:34;;;;;;;8.40;4.35;;;;;;;;;;1505831;39;20029;-62
2021/08/05 01:44:36;;;;;;;9.38;3.97;;;;;;;;;;1505815;39;20018;-61
2021/08/05 01:45:40;;;;;;;7.95;3.88;;;;;;;;;;1505891;39;20373;-62
2021/08/05 01:46:43;;;;;;;11.80;4.28;;;;;;;;;;1505777;39;20398;-63
2021/08/05 01:47:46;;;;;;;8.98;4.40;;;;;;;;;;1505916;39;20030;-62
2021/08/05 01:48:47;;;;;;;8.02;3.97;;;;;;;;;;1505826;39;20030;-61
2021/08/05 01:49:50;;;;;;;9.38;4.00;;;;;;;;;;1505797;39;20027;-61
2021/08/05 01:50:52;;;;;;;8.45;4.47;;;;;;;;;;1505826;39;20019;-61
2021/08/05 01:51:54;;;;;;;10.43;4.78;;;;;;;;;;1505841;39;20059;-62
2021/08/05 01:52:55;;;;;;;9.50;4.15;;;;;;;;;;1505754;39;20049;-61
2021/08/05 01:53:57;;;;;;;7.95;3.45;;;;;;;;;;1505956;39;20030;-62
2021/08/05 01:54:59;;;;;;;7.40;4.63;;;;;;;;;;1505754;39;20029;-62
2021/08/05 01:56:01;;;;;;;8.38;4.40;;;;;;;;;;1506044;39;20023;-62
2021/08/05 01:57:02;;;;;;;7.82;4.43;;;;;;;;;;1505780;39;20033;-62
2021/08/05 01:58:06;;;;;;;9.68;4.72;;;;;;;;;;1505811;39;20406;-62
2021/08/05 01:59:07;;;;;;;8.80;4.57;;;;;;;;;;1505880;39;20023;-62
2021/08/05 02:00:11;;;;;;;9.18;4.95;;;;;;;;;;1505961;39;20034;-61
2021/08/05 02:01:12;;;;;;;10.13;4.70;;;;;;;;;;1505771;39;20023;-62
2021/08/05 02:02:14;;;;;;;11.27;5.38;;;;;;;;;;1505753;39;20311;-62
2021/08/05 02:03:16;;;;;;;8.55;4.90;;;;;;;;;;1505763;39;20033;-62
2021/08/05 02:04:33;;;;;;;9.60;4.90;;;;;;;;;;1505916;39;20026;-62
2021/08/05 02:05:41;;;;;;;9.70;4.95;;;;;;;;;;1505914;39;20030;-62
2021/08/05 02:06:54;;;;;;;11.85;5.07;;;;;;;;;;1505990;39;20397;-62
2021/08/05 02:08:00;;;;;;;10.75;4.85;;;;;;;;;;1505879;39;20300;-61
2021/08/05 02:09:10;;;;;;;8.23;4.45;;;;;;;;;;1505887;39;20099;-62
2021/08/05 02:10:18;;;;;;;11.00;5.57;;;;;;;;;;1505739;39;20030;-62
2021/08/05 02:11:24;;;;;;;11.18;5.38;;;;;;;;;;1505896;39;20110;-62
2021/08/05 02:12:29;;;;;;;11.27;5.75;;;;;;;;;;1505833;39;20030;-62
2021/08/05 02:13:39;;;;;;;11.20;5.45;;;;;;;;;;1505765;39;20346;-62
2021/08/05 02:14:40;;;;;;;10.63;5.35;;;;;;;;;;1505826;39;20022;-62
2021/08/05 02:15:45;;;;;;;9.90;5.32;;;;;;;;;;1505898;39;20027;-61
2021/08/05 02:16:49;;;;;;;11.48;5.80;;;;;;;;;;1506203;39;20026;-58
2021/08/05 02:17:52;;;;;;;11.57;5.70;;;;;;;;;;1505755;39;20375;-58
2021/08/05 02:18:53;;;;;;;12.55;6.05;;;;;;;;;;1505842;39;20018;-58
2021/08/05 02:19:56;;;;;;;9.30;5.43;;;;;;;;;;1505718;39;20275;-58
2021/08/05 02:20:58;;;;;;;13.52;6.05;;;;;;;;;;1505754;39;20019;-58
2021/08/05 02:22:00;;;;;;;14.10;6.28;;;;;;;;;;1505762;39;20033;-59
2021/08/05 02:23:02;;;;;;;12.48;6.45;;;;;;;;;;1505792;39;20270;-59
2021/08/05 02:24:05;;;;;;;13.20;5.57;;;;;;;;;;1505811;39;20023;-59
2021/08/05 02:25:07;;;;;;;12.20;6.53;;;;;;;;;;1505905;39;20026;-59
2021/08/05 02:26:09;;;;;;;11.57;5.88;;;;;;;;;;1505732;39;20030;-59
2021/08/05 02:27:10;;;;;;;11.75;5.50;;;;;;;;;;1505735;39;20282;-58
2021/08/05 02:28:13;;;;;;;11.52;5.47;;;;;;;;;;1505884;39;20026;-59
2021/08/05 02:29:19;;;;;;;7.65;4.13;;;;;;;;;;1506364;39;20022;-60
2021/08/05 02:30:23;;;;;;;9.30;4.60;;;;;;;;;;1506492;39;20374;-59
2021/08/05 02:31:25;;;;;;;7.88;4.28;;;;;;;;;;1506533;39;20026;-59
2021/08/05 02:32:28;;;;;;;8.35;4.45;;;;;;;;;;1506608;39;20023;-60
2021/08/05 02:33:31;;;;;;;8.60;4.03;;;;;;;;;;1506327;39;20025;-59
2021/08/05 02:34:34;;;;;;;7.80;4.20;;;;;;;;;;1506681;39;20038;-60
2021/08/05 02:35:38;;;;;;;9.23;4.40;;;;;;;;;;1506328;39;20018;-59
2021/08/05 02:36:40;;;;;;;9.35;4.80;;;;;;;;;;1506308;39;20022;-59
2021/08/05 02:37:42;;;;;;;10.32;4.68;;;;;;;;;;1506237;39;20290;-59
2021/08/05 02:38:44;;;;;;;11.38;5.05;;;;;;;;;;1506289;39;20059;-59
2021/08/05 02:39:44;;;;;;;7.78;3.95;;;;;;;;;;1505852;39;20023;-59
2021/08/05 02:40:49;;;;;;;8.85;4.30;;;;;;;;;;1505807;39;20030;-59
2021/08/05 02:41:51;;;;;;;9.40;4.40;;;;;;;;;;1505729;39;20297;-59
2021/08/05 02:42:53;;;;;;;7.63;4.00;;;;;;;;;;1505790;39;20022;-60
2021/08/05 02:43:55;;;;;;;7.18;4.05;;;;;;;;;;1505703;39;20019;-59
2021/08/05 02:44:59;;;;;;;10.52;4.40;;;;;;;;;;1505756;39;20023;-59
2021/08/05 02:46:01;;;;;;;10.02;4.25;;;;;;;;;;1505848;39;20045;-60
2021/08/05 02:47:04;;;;;;;8.30;3.80;;;;;;;;;;1505679;39;20409;-60
2021/08/05 02:48:07;;;;;;;7.15;3.45;;;;;;;;;;1505720;39;20023;-59
2021/08/05 02:49:09;;;;;;;8.82;3.88;;;;;;;;;;1505865;39;20062;-59
2021/08/05 02:50:13;;;;;;;7.88;4.22;;;;;;;;;;1505681;39;20030;-59
2021/08/05 02:51:16;;;;;;;7.95;3.92;;;;;;;;;;1505801;39;20031;-59
2021/08/05 02:52:17;;;;;;;6.93;3.85;;;;;;;;;;1505528;39;20030;-59
2021/08/05 02:53:19;;;;;;;7.57;3.78;;;;;;;;;;1505434;39;20455;-59
2021/08/05 02:54:21;;;;;;;7.75;4.00;;;;;;;;;;1505807;39;20022;-59
2021/08/05 02:55:23;;;;;;;7.65;4.15;;;;;;;;;;1505638;39;20022;-59
2021/08/05 02:56:25;;;;;;;7.10;3.63;;;;;;;;;;1505858;39;20033;-59
2021/08/05 02:57:26;;;;;;;6.93;3.42;;;;;;;;;;1505757;39;20026;-59
2021/08/05 02:58:29;;;;;;;6.18;3.47;;;;;;;;;;1505919;39;20030;-59
2021/08/05 02:59:30;;;;;;;6.65;3.38;;;;;;;;;;1505898;39;20029;-59
2021/08/05 03:00:34;;;;;;;6.95;4.25;;;;;;;;;;1505664;39;20110;-59
2021/08/05 03:01:35;;;;;;;6.53;3.38;;;;;;;;;;1505643;39;20023;-59
2021/08/05 03:02:37;;;;;;;5.15;3.15;;;;;;;;;;1505772;39;20029;-59
2021/08/05 03:03:38;;;;;;;4.57;3.13;;;;;;;;;;1505631;39;20034;-59
2021/08/05 03:04:40;;;;;;;4.93;3.25;;;;;;;;;;1505755;39;20022;-59
2021/08/05 03:05:41;;;;;;;7.10;3.75;;;;;;;;;;1505591;39;20023;-59
2021/08/05 03:06:45;;;;;;;5.45;3.38;;;;;;;;;;1505768;39;20026;-58
2021/08/05 03:07:46;;;;;;;6.07;3.13;;;;;;;;;;1505924;39;20362;-60
2021/08/05 03:08:48;;;;;;;6.32;3.25;;;;;;;;;;1505738;39;20026;-58
2021/08/05 03:09:49;;;;;;;6.88;3.30;;;;;;;;;;1505730;39;20029;-59
2021/08/05 03:10:51;;;;;;;6.03;3.20;;;;;;;;;;1505681;39;20049;-59
2021/08/05 03:11:52;;;;;;;6.85;3.20;;;;;;;;;;1505866;39;20025;-58
2021/08/05 03:12:54;;;;;;;5.38;2.85;;;;;;;;;;1505689;39;20074;-59
2021/08/05 03:13:54;;;;;;;4.75;3.03;;;;;;;;;;1505578;39;20383;-58
2021/08/05 03:14:56;;;;;;;5.80;2.85;;;;;;;;;;1505705;39;20022;-59
2021/08/05 03:15:59;;;;;;;7.07;3.35;;;;;;;;;;1505631;39;20406;-59
2021/08/05 03:17:00;;;;;;;5.03;3.00;;;;;;;;;;1505718;39;20082;-59
2021/08/05 03:18:01;;;;;;;5.03;2.90;;;;;;;;;;1505548;39;20019;-59
2021/08/05 03:19:03;;;;;;;4.88;2.70;;;;;;;;;;1505791;39;20018;-59
2021/08/05 03:20:05;;;;;;;4.82;2.80;;;;;;;;;;1505667;39;20026;-59
2021/08/05 03:21:07;;;;;;;5.10;2.90;;;;;;;;;;1505712;39;20014;-59
2021/08/05 03:22:08;;;;;;;5.35;2.97;;;;;;;;;;1505673;39;20023;-58
2021/08/05 03:23:10;;;;;;;5.53;2.88;;;;;;;;;;1505644;39;20019;-59
2021/08/05 03:24:10;;;;;;;6.57;3.10;;;;;;;;;;1505547;39;20022;-59
2021/08/05 03:25:13;;;;;;;4.50;2.72;;;;;;;;;;1505597;39;20277;-59
2021/08/05 03:26:33;;;;;;;5.53;2.90;;;;;;;;;;1505691;39;20022;-59
2021/08/05 03:27:34;;;;;;;7.30;3.42;;;;;;;;;;1505574;39;20018;-59
2021/08/05 03:28:35;;;;;;;4.45;2.65;;;;;;;;;;1505663;39;20312;-59
2021/08/05 03:29:37;;;;;;;5.38;2.83;;;;;;;;;;1505478;39;20026;-59
2021/08/05 03:30:39;;;;;;;5.70;2.85;;;;;;;;;;1505561;39;20030;-58
2021/08/05 03:31:41;;;;;;;5.82;2.70;;;;;;;;;;1505581;39;20038;-59
2021/08/05 03:32:42;;;;;;;5.90;3.22;;;;;;;;;;1505585;39;20034;-59
2021/08/05 03:33:43;;;;;;;5.40;3.15;;;;;;;;;;1505524;39;20031;-59
2021/08/05 03:34:45;;;;;;;4.85;2.55;;;;;;;;;;1505712;39;20020;-59
2021/08/05 03:35:46;;;;;;;9.05;3.72;;;;;;;;;;1505587;39;20358;-59
2021/08/05 03:36:47;;;;;;;5.18;2.85;;;;;;;;;;1505784;39;20063;-59
2021/08/05 03:37:48;;;;;;;4.97;2.83;;;;;;;;;;1505684;39;20034;-59
2021/08/05 03:38:50;;;;;;;6.95;3.47;;;;;;;;;;1505668;39;20033;-59
2021/08/05 03:39:51;;;;;;;5.18;3.28;;;;;;;;;;1505639;39;20102;-60
2021/08/05 03:40:53;;;;;;;6.07;3.47;;;;;;;;;;1505658;39;20111;-60
2021/08/05 03:41:54;;;;;;;5.78;3.40;;;;;;;;;;1505514;39;20025;-59
2021/08/05 03:42:55;;;;;;;6.20;3.90;;;;;;;;;;1505587;39;20027;-58
2021/08/05 03:43:56;;;;;;;8.32;4.25;;;;;;;;;;1505455;39;20058;-59
2021/08/05 03:44:58;;;;;;;6.55;3.67;;;;;;;;;;1505630;39;20110;-59
2021/08/05 03:45:59;;;;;;;9.32;3.97;;;;;;;;;;1505630;39;20033;-59
2021/08/05 03:47:02;;;;;;;7.03;3.85;;;;;;;;;;1505586;39;20026;-59
2021/08/05 03:48:03;;;;;;;8.73;4.43;;;;;;;;;;1505515;39;20026;-59
2021/08/05 03:49:05;;;;;;;6.45;3.92;;;;;;;;;;1505642;39;20021;-59
2021/08/05 03:50:07;;;;;;;8.15;4.63;;;;;;;;;;1505521;39;20029;-59
2021/08/05 03:51:08;;;;;;;7.95;4.80;;;;;;;;;;1505550;39;20026;-59
2021/08/05 03:52:10;;;;;;;7.60;4.63;;;;;;;;;;1505501;39;20039;-59
2021/08/05 03:53:12;;;;;;;9.25;4.90;;;;;;;;;;1505491;39;20286;-59
2021/08/05 03:54:13;;;;;;;6.75;4.47;;;;;;;;;;1505586;39;20026;-59
2021/08/05 03:55:15;;;;;;;8.55;4.72;;;;;;;;;;1505483;39;20409;-59
2021/08/05 03:56:16;;;;;;;8.45;5.03;;;;;;;;;;1505601;39;20027;-59
2021/08/05 03:57:17;;;;;;;8.95;5.20;;;;;;;;;;1505548;39;20390;-59
2021/08/05 03:58:18;;;;;;;9.10;5.10;;;;;;;;;;1505465;39;20106;-59
2021/08/05 03:59:20;;;;;;;9.27;4.68;;;;;;;;;;1505659;39;20103;-59
2021/08/05 04:00:21;;;;;;;8.60;4.97;;;;;;;;;;1505508;39;20062;-59
2021/08/05 04:01:23;;;;;;;8.38;5.18;;;;;;;;;;1505488;39;20026;-59
2021/08/05 04:02:25;;;;;;;9.10;5.18;;;;;;;;;;1505496;39;20022;-59
2021/08/05 04:03:27;;;;;;;11.02;6.07;;;;;;;;;;1505579;39;20027;-59
2021/08/05 04:04:27;;;;;;;13.10;5.72;;;;;;;;;;1506099;39;20023;-59
2021/08/05 04:05:29;;;;;;;8.95;5.95;;;;;;;;;;1506144;39;20042;-59
2021/08/05 04:06:30;;;;;;;12.60;6.50;;;;;;;;;;1506243;39;20027;-59
2021/08/05 04:07:32;;;;;;;11.95;7.32;;;;;;;;;;1506316;39;20030;-59
2021/08/05 04:08:33;;;;;;;15.02;7.10;;;;;;;;;;1506148;39;20259;-59
2021/08/05 04:09:35;;;;;;;13.05;7.03;;;;;;;;;;1506386;39;20055;-59
2021/08/05 04:10:36;;;;;;;13.77;6.90;;;;;;;;;;1506184;39;20034;-59
2021/08/05 04:11:37;;;;;;;16.02;7.78;;;;;;;;;;1506244;39;20401;-58
2021/08/05 04:12:38;;;;;;;16.40;7.93;;;;;;;;;;1506184;39;20041;-59
2021/08/05 04:13:40;;;;;;;14.35;7.43;;;;;;;;;;1506075;39;20421;-59
2021/08/05 04:14:41;;;;;;;14.35;7.80;;;;;;;;;;1506092;39;20029;-59
2021/08/05 04:15:42;;;;;;;13.90;7.53;;;;;;;;;;1506162;39;20058;-59
2021/08/05 04:16:43;;;;;;;13.63;8.20;;;;;;;;;;1506074;39;20030;-59
2021/08/05 04:17:46;;;;;;;15.40;8.18;;;;;;;;;;1506292;39;20315;-59
2021/08/05 04:18:47;;;;;;;12.85;7.88;;;;;;;;;;1506164;39;20026;-59
2021/08/05 04:19:49;;;;;;;15.35;8.20;;;;;;;;;;1501227;39;20074;-59
2021/08/05 04:20:49;;;;;;;15.77;8.93;;;;;;;;;;1501381;39;20367;-59
2021/08/05 04:21:51;;;;;;;14.15;8.30;;;;;;;;;;1506118;39;20038;-59
2021/08/05 04:22:52;;;;;;;16.33;8.63;;;;;;;;;;1506049;39;20056;-59
2021/08/05 04:23:54;;;;;;;15.77;8.77;;;;;;;;;;1506239;39;20394;-59
2021/08/05 04:24:55;;;;;;;16.05;8.88;;;;;;;;;;1506069;39;20414;-59
2021/08/05 04:25:57;;;;;;;16.35;9.65;;;;;;;;;;1506061;39;20018;-59
2021/08/05 04:26:58;;;;;;;18.35;8.98;;;;;;;;;;1506061;39;20037;-60
2021/08/05 04:28:00;;;;;;;18.02;9.18;;;;;;;;;;1506085;39;20055;-59
2021/08/05 04:29:01;;;;;;;16.67;9.60;;;;;;;;;;1506052;39;20385;-59
2021/08/05 04:30:03;;;;;;;19.15;9.88;;;;;;;;;;1506202;39;20037;-59
2021/08/05 04:31:04;;;;;;;16.45;9.35;;;;;;;;;;1506134;39;20019;-59
2021/08/05 04:32:06;;;;;;;16.73;9.23;;;;;;;;;;1505998;39;20059;-59
2021/08/05 04:33:08;;;;;;;18.13;9.60;;;;;;;;;;1506170;39;20029;-58
2021/08/05 04:34:10;;;;;;;14.00;8.05;;;;;;;;;;1506035;39;20045;-58
2021/08/05 04:35:11;;;;;;;18.60;9.35;;;;;;;;;;1506004;39;20018;-57
2021/08/05 04:36:13;;;;;;;18.08;9.27;;;;;;;;;;1506180;39;20295;-57
2021/08/05 04:37:14;;;;;;;16.92;9.10;;;;;;;;;;1506071;39;20026;-56
2021/08/05 04:38:16;;;;;;;18.20;9.20;;;;;;;;;;1506070;39;20067;-58
2021/08/05 04:39:19;;;;;;;18.45;9.02;;;;;;;;;;1506067;39;20046;-56
2021/08/05 04:40:22;;;;;;;17.63;8.93;;;;;;;;;;1506042;39;20142;-58
2021/08/05 04:41:23;;;;;;;16.23;8.38;;;;;;;;;;1506018;39;20079;-58
2021/08/05 04:42:25;;;;;;;19.13;9.18;;;;;;;;;;1506122;39;20023;-58
2021/08/05 04:43:26;;;;;;;18.33;9.23;;;;;;;;;;1505977;39;20031;-58
2021/08/05 04:44:28;;;;;;;17.05;9.35;;;;;;;;;;1506148;39;20066;-58
2021/08/05 04:45:28;;;;;;;14.52;8.50;;;;;;;;;;1506015;39;20383;-58
2021/08/05 04:46:30;;;;;;;14.95;8.55;;;;;;;;;;1506142;39;20023;-58
2021/08/05 04:47:31;;;;;;;16.73;8.73;;;;;;;;;;1506180;39;20271;-58
2021/08/05 04:48:34;;;;;;;16.00;8.65;;;;;;;;;;1505953;39;20034;-59
2021/08/05 04:49:35;;;;;;;16.73;8.55;;;;;;;;;;1505960;39;20337;-59
2021/08/05 04:50:38;;;;;;;16.48;8.95;;;;;;;;;;1506091;39;20056;-58
2021/08/05 04:51:39;;;;;;;13.23;8.32;;;;;;;;;;1506002;39;20050;-58
2021/08/05 04:52:41;;;;;;;15.45;8.30;;;;;;;;;;1506094;39;20019;-58
2021/08/05 04:53:43;;;;;;;18.60;8.82;;;;;;;;;;1506000;39;20018;-58
2021/08/05 04:54:44;;;;;;;16.25;9.20;;;;;;;;;;1506062;39;20026;-57
2021/08/05 04:55:46;;;;;;;18.50;8.60;;;;;;;;;;1506057;39;20022;-58
2021/08/05 04:56:46;;;;;;;13.60;8.20;;;;;;;;;;1506081;39;20324;-58
2021/08/05 04:57:53;;;;;;;14.38;8.25;;;;;;;;;;1506062;39;20057;-59
2021/08/05 04:58:54;;;;;;;15.43;8.93;;;;;;;;;;1505997;39;20041;-58
2021/08/05 04:59:55;;;;;;;15.07;8.20;;;;;;;;;;1505943;39;20057;-57
2021/08/05 05:00:56;;;;;;;16.10;8.45;;;;;;;;;;1505966;39;20034;-58
2021/08/05 05:01:58;;;;;;;12.90;8.38;;;;;;;;;;1506042;39;20022;-58
2021/08/05 05:02:59;;;;;;;13.40;7.72;;;;;;;;;;1505969;39;20418;-59
2021/08/05 05:04:02;;;;;;;15.32;7.78;;;;;;;;;;1506064;39;20030;-57
2021/08/05 05:05:03;;;;;;;15.68;7.93;;;;;;;;;;1505961;39;20023;-59
2021/08/05 05:06:05;;;;;;;11.75;7.30;;;;;;;;;;1506152;39;20102;-59
2021/08/05 05:07:06;;;;;;;13.38;7.80;;;;;;;;;;1506027;39;20018;-59
2021/08/05 05:08:18;;;;;;;14.98;7.85;;;;;;;;;;1506034;39;20030;-59
2021/08/05 05:09:19;;;;;;;14.77;8.05;;;;;;;;;;1505907;39;20066;-59
2021/08/05 05:10:23;;;;;;;13.77;7.40;;;;;;;;;;1505953;39;20036;-59
2021/08/05 05:11:23;;;;;;;11.00;7.93;;;;;;;;;;1505941;39;20415;-59
2021/08/05 05:12:25;;;;;;;12.45;7.47;;;;;;;;;;1506197;39;20060;-59
2021/08/05 05:13:27;;;;;;;11.77;7.10;;;;;;;;;;1505975;39;20045;-59
2021/08/05 05:14:29;;;;;;;11.30;6.70;;;;;;;;;;1505904;39;20039;-57
2021/08/05 05:15:30;;;;;;;11.98;6.50;;;;;;;;;;1505735;39;20030;-59
2021/08/05 05:16:31;;;;;;;13.00;7.25;;;;;;;;;;1505915;39;20058;-59
2021/08/05 05:17:32;;;;;;;11.55;6.40;;;;;;;;;;1506026;39;20014;-58
2021/08/05 05:18:34;;;;;;;12.82;6.97;;;;;;;;;;1506009;39;20019;-58
2021/08/05 05:19:36;;;;;;;9.90;5.90;;;;;;;;;;1505843;39;20033;-59
2021/08/05 05:20:38;;;;;;;13.95;6.85;;;;;;;;;;1505984;39;20465;-59
2021/08/05 05:21:39;;;;;;;10.23;5.95;;;;;;;;;;1501200;39;20027;-59
2021/08/05 05:22:41;;;;;;;15.32;6.65;;;;;;;;;;1501212;39;20381;-59
2021/08/05 05:23:42;;;;;;;9.57;5.85;;;;;;;;;;1506003;39;20019;-58
2021/08/05 05:24:44;;;;;;;10.93;6.53;;;;;;;;;;1505911;39;20311;-58
2021/08/05 05:25:46;;;;;;;11.75;6.43;;;;;;;;;;1506025;39;20022;-58
2021/08/05 05:26:48;;;;;;;9.95;5.85;;;;;;;;;;1506088;39;20030;-59
2021/08/05 05:27:49;;;;;;;10.63;5.78;;;;;;;;;;1505900;39;20380;-59
2021/08/05 05:28:50;;;;;;;12.00;6.28;;;;;;;;;;1505980;39;20022;-60
2021/08/05 05:29:51;;;;;;;13.20;6.60;;;;;;;;;;1505960;39;20033;-58
2021/08/05 05:30:54;;;;;;;11.23;6.22;;;;;;;;;;1505958;39;20386;-58
2021/08/05 05:31:54;;;;;;;9.90;5.80;;;;;;;;;;1505960;39;20019;-59
2021/08/05 05:32:56;;;;;;;10.00;6.40;;;;;;;;;;1505983;39;20037;-58
2021/08/05 05:33:57;;;;;;;13.70;5.93;;;;;;;;;;1505949;39;20018;-58
2021/08/05 05:35:00;;;;;;;10.75;5.70;;;;;;;;;;1505965;39;20059;-59
2021/08/05 05:36:02;;;;;;;10.48;5.65;;;;;;;;;;1505836;39;20027;-59
2021/08/05 05:37:04;;;;;;;11.13;5.50;;;;;;;;;;1505930;39;20029;-59
2021/08/05 05:38:07;;;;;;;10.57;5.32;;;;;;;;;;1505841;39;20405;-59
2021/08/05 05:39:08;;;;;;;9.00;5.32;;;;;;;;;;1505902;39;20026;-58
2021/08/05 05:40:11;;;;;;;11.43;5.50;;;;;;;;;;1505767;39;20030;-59
2021/08/05 05:41:13;;;;;;;8.73;5.57;;;;;;;;;;1505944;39;20029;-58
2021/08/05 05:42:14;;;;;;;11.15;5.55;;;;;;;;;;1505851;39;20027;-58
2021/08/05 05:43:16;;;;;;;10.02;5.28;;;;;;;;;;1505904;39;20026;-58
2021/08/05 05:44:17;;;;;;;11.68;5.97;;;;;;;;;;1505851;39;20293;-59
2021/08/05 05:45:18;;;;;;;11.52;6.28;;;;;;;;;;1506064;39;20026;-59
2021/08/05 05:46:19;;;;;;;13.57;6.28;;;;;;;;;;1501134;39;20286;-58
2021/08/05 05:47:21;;;;;;;14.40;6.60;;;;;;;;;;1501232;39;20054;-59
2021/08/05 05:48:22;;;;;;;11.68;6.45;;;;;;;;;;1505970;39;20019;-57
2021/08/05 05:49:25;;;;;;;10.75;5.78;;;;;;;;;;1505921;39;20023;-58
2021/08/05 05:50:28;;;;;;;9.73;5.72;;;;;;;;;;1505878;39;20385;-59
2021/08/05 05:51:30;;;;;;;9.70;5.97;;;;;;;;;;1505873;39;20023;-59
2021/08/05 05:52:31;;;;;;;11.60;6.30;;;;;;;;;;1505840;39;20293;-59
2021/08/05 05:53:33;;;;;;;10.27;5.65;;;;;;;;;;1505877;39;20293;-58
2021/08/05 05:54:34;;;;;;;9.75;6.10;;;;;;;;;;1505959;39;20026;-59
2021/08/05 05:55:39;;;;;;;10.50;5.70;;;;;;;;;;1501057;39;20015;-58
2021/08/05 05:56:40;;;;;;;13.52;6.05;;;;;;;;;;1501537;39;20291;-58
2021/08/05 05:57:42;;;;;;;9.30;5.20;;;;;;;;;;1505888;39;20019;-58
2021/08/05 05:58:43;;;;;;;10.68;5.18;;;;;;;;;;1505921;39;20019;-59
2021/08/05 05:59:45;;;;;;;10.55;4.88;;;;;;;;;;1506007;39;20327;-59
2021/08/05 06:00:46;;;;;;;9.68;5.47;;;;;;;;;;1505770;39;20385;-59
2021/08/05 06:01:47;;;;;;;10.18;5.55;;;;;;;;;;1505845;39;20059;-59
2021/08/05 06:02:48;;;;;;;9.68;4.90;;;;;;;;;;1505778;39;20026;-58
2021/08/05 06:03:50;;;;;;;11.60;5.57;;;;;;;;;;1505888;39;20059;-59
2021/08/05 06:04:51;;;;;;;10.13;5.68;;;;;;;;;;1505779;39;20030;-59
2021/08/05 06:05:54;;;;;;;8.50;5.18;;;;;;;;;;1505988;39;20058;-59
2021/08/05 06:06:55;;;;;;;8.90;4.78;;;;;;;;;;1500958;39;20030;-59
2021/08/05 06:07:56;;;;;;;8.60;5.22;;;;;;;;;;1496785;39;20030;-59
2021/08/05 06:08:59;;;;;;;9.05;5.35;;;;;;;;;;1501051;39;20027;-58
2021/08/05 06:10:00;;;;;;;8.95;4.95;;;;;;;;;;1505772;39;20022;-58
2021/08/05 06:11:01;;;;;;;11.40;5.22;;;;;;;;;;1505748;39;20033;-60
2021/08/05 06:12:04;;;;;;;10.65;5.00;;;;;;;;;;1505772;39;20019;-59